createdAt,value
2023-01-10T00:00:35.627Z,9.48
2023-01-10T00:03:23.478Z,9.40
2023-01-10T00:06:11.093Z,8.55
2023-01-10T00:08:58.992Z,9.52
2023-01-10T00:12:04.868Z,8.90
2023-01-10T00:14:52.909Z,7.70
2023-01-10T00:17:40.637Z,9.02
2023-01-10T00:20:28.627Z,10.02
2023-01-10T00:23:17.522Z,10.63
2023-01-10T00:26:05.385Z,9.00
2023-01-10T00:28:53.103Z,11.52
2023-01-10T00:31:43.508Z,8.57
2023-01-10T00:34:32.917Z,10.88
2023-01-10T00:37:20.837Z,8.55
2023-01-10T00:40:11.070Z,8.90
2023-01-10T00:43:17.887Z,9.90
2023-01-10T00:46:05.811Z,10.82
2023-01-10T00:48:53.933Z,8.68
2023-01-10T00:51:45.843Z,7.70
2023-01-10T00:54:35.953Z,8.50
2023-01-10T00:57:23.618Z,8.95
2023-01-10T01:00:12.444Z,6.95
2023-01-10T01:03:00.213Z,7.97
2023-01-10T01:05:49.155Z,8.80
2023-01-10T01:08:36.982Z,10.57
2023-01-10T01:11:25.321Z,10.95
2023-01-10T01:14:13.061Z,13.25
2023-01-10T01:17:00.823Z,9.05
2023-01-10T01:19:48.493Z,10.52
2023-01-10T01:22:36.631Z,9.52
2023-01-10T01:25:24.718Z,10.10
2023-01-10T01:28:13.205Z,11.52
2023-01-10T01:31:07.625Z,9.68
2023-01-10T01:33:55.531Z,12.15
2023-01-10T01:36:43.153Z,12.82
2023-01-10T01:39:30.966Z,8.52
2023-01-10T01:42:26.806Z,10.50
2023-01-10T01:45:14.421Z,10.27
2023-01-10T01:48:28.439Z,12.02
2023-01-10T01:51:27.803Z,14.30
2023-01-10T01:54:16.752Z,11.43
2023-01-10T01:57:10.205Z,11.35
2023-01-10T02:00:03.000Z,20.95
2023-01-10T02:03:03.063Z,16.38
2023-01-10T02:05:51.130Z,13.88
2023-01-10T02:08:45.285Z,13.60
2023-01-10T02:11:33.021Z,13.50
2023-01-10T02:14:22.098Z,15.70
2023-01-10T02:17:11.276Z,13.85
2023-01-10T02:20:04.000Z,13.48
2023-01-10T02:22:54.645Z,13.45
2023-01-10T02:26:21.207Z,12.98
2023-01-10T02:29:38.203Z,13.63
2023-01-10T02:32:45.839Z,12.88
2023-01-10T02:35:47.191Z,9.82
2023-01-10T02:39:02.807Z,11.43
2023-01-10T02:42:05.047Z,9.55
2023-01-10T02:45:02.780Z,12.10
2023-01-10T02:47:50.996Z,10.88
2023-01-10T02:50:41.706Z,11.13
2023-01-10T02:53:29.439Z,12.15
2023-01-10T02:56:29.941Z,11.68
2023-01-10T02:59:43.705Z,11.48
2023-01-10T03:02:49.254Z,11.88
2023-01-10T03:06:03.484Z,12.30
2023-01-10T03:09:08.717Z,14.88
2023-01-10T03:12:13.021Z,14.15
2023-01-10T03:15:03.413Z,13.38
2023-01-10T03:17:55.009Z,14.73
2023-01-10T03:20:50.546Z,14.02
2023-01-10T03:23:39.258Z,14.70
2023-01-10T03:26:42.866Z,14.30
2023-01-10T03:29:46.282Z,13.10
2023-01-10T03:32:34.593Z,13.18
2023-01-10T03:35:31.576Z,15.02
2023-01-10T03:38:32.895Z,15.02
2023-01-10T03:41:40.171Z,17.33
2023-01-10T03:44:58.250Z,14.38
2023-01-10T03:47:51.383Z,14.65
2023-01-10T03:50:41.286Z,15.90
2023-01-10T03:53:29.201Z,16.30
2023-01-10T03:56:17.070Z,15.57
2023-01-10T03:59:04.920Z,15.05
2023-01-10T04:01:53.564Z,17.42
2023-01-10T04:04:41.413Z,17.77
2023-01-10T04:07:29.155Z,16.77
2023-01-10T04:10:17.455Z,15.80
2023-01-10T04:13:06.044Z,15.35
2023-01-10T04:15:53.981Z,14.65
2023-01-10T04:18:41.655Z,15.02
2023-01-10T04:21:29.389Z,16.90
2023-01-10T04:24:17.194Z,17.83
2023-01-10T04:27:08.149Z,15.32
2023-01-10T04:29:55.906Z,14.82
2023-01-10T04:32:43.594Z,15.45
2023-01-10T04:35:31.262Z,16.05
2023-01-10T04:38:19.388Z,14.40
2023-01-10T04:41:09.036Z,12.55
2023-01-10T04:43:56.875Z,12.90
2023-01-10T04:46:44.494Z,14.65
2023-01-10T04:49:38.008Z,13.50
2023-01-10T04:52:28.335Z,13.45
2023-01-10T04:55:16.205Z,15.05
2023-01-10T04:58:04.892Z,14.50
2023-01-10T05:00:52.888Z,13.65
2023-01-10T05:03:41.264Z,12.95
2023-01-10T05:06:29.003Z,14.23
2023-01-10T05:09:16.912Z,15.30
2023-01-10T05:12:04.880Z,13.70
2023-01-10T05:14:55.198Z,13.98
2023-01-10T05:17:42.958Z,12.45
2023-01-10T05:20:31.743Z,11.35
2023-01-10T05:23:19.752Z,13.57
2023-01-10T05:26:13.418Z,12.70
2023-01-10T05:29:01.147Z,11.82
2023-01-10T05:31:51.811Z,13.60
2023-01-10T05:34:39.530Z,13.90
2023-01-10T05:37:27.211Z,15.18
2023-01-10T05:40:16.014Z,12.93
2023-01-10T05:43:03.816Z,13.60
2023-01-10T05:45:52.040Z,13.45
2023-01-10T05:48:39.714Z,12.75
2023-01-10T05:51:27.339Z,12.98
2023-01-10T05:54:15.235Z,14.48
2023-01-10T05:57:02.958Z,13.20
2023-01-10T05:59:51.659Z,14.98
2023-01-10T06:02:39.517Z,12.88
2023-01-10T06:05:27.323Z,12.25
2023-01-10T06:08:15.139Z,12.68
2023-01-10T06:11:06.242Z,11.85
2023-01-10T06:13:56.019Z,18.13
2023-01-10T06:16:43.786Z,14.30
2023-01-10T06:19:31.446Z,16.38
2023-01-10T06:22:19.176Z,13.50
2023-01-10T06:25:07.473Z,20.52
2023-01-10T06:27:55.161Z,17.13
2023-01-10T06:30:43.736Z,16.60
2023-01-10T06:33:31.434Z,15.23
2023-01-10T06:36:19.156Z,10.82
2023-01-10T06:39:06.868Z,10.23
2023-01-10T06:41:54.556Z,13.13
2023-01-10T06:44:42.259Z,12.30
2023-01-10T06:47:29.931Z,13.48
2023-01-10T06:50:18.404Z,12.43
2023-01-10T06:53:06.144Z,12.90
2023-01-10T06:55:55.608Z,13.45
2023-01-10T06:58:43.313Z,11.98
2023-01-10T07:01:31.145Z,9.93
2023-01-10T07:04:18.941Z,11.70
2023-01-10T07:07:06.721Z,11.50
2023-01-10T07:09:54.631Z,13.18
2023-01-10T07:12:42.315Z,12.10
2023-01-10T07:15:31.077Z,10.70
2023-01-10T07:18:18.893Z,11.32
2023-01-10T07:21:07.017Z,10.73
2023-01-10T07:23:54.713Z,13.30
2023-01-10T07:26:42.364Z,13.18
2023-01-10T07:29:30.037Z,11.15
2023-01-10T07:32:17.763Z,11.60
2023-01-10T07:35:05.949Z,15.98
2023-01-10T07:37:53.523Z,17.63
2023-01-10T07:40:41.159Z,16.13
2023-01-10T07:43:28.910Z,13.70
2023-01-10T07:46:16.883Z,12.52
2023-01-10T07:49:04.608Z,10.35
2023-01-10T07:51:52.492Z,12.65
2023-01-10T07:54:40.220Z,10.32
2023-01-10T07:57:28.057Z,9.52
2023-01-10T08:00:18.733Z,11.35
2023-01-10T08:03:07.023Z,12.40
2023-01-10T08:06:00.389Z,10.25
2023-01-10T08:08:48.175Z,11.70
2023-01-10T08:11:36.015Z,12.65
2023-01-10T08:14:23.835Z,12.20
2023-01-10T08:17:11.620Z,10.85
2023-01-10T08:19:59.371Z,9.38
2023-01-10T08:22:47.080Z,12.05
2023-01-10T08:25:37.340Z,11.80
2023-01-10T08:28:28.503Z,11.20
2023-01-10T08:31:16.269Z,10.48
2023-01-10T08:34:03.928Z,9.60
2023-01-10T08:36:52.832Z,9.43
2023-01-10T08:39:40.814Z,10.30
2023-01-10T08:42:29.149Z,10.13
2023-01-10T08:45:16.815Z,11.52
2023-01-10T08:48:05.587Z,9.10
2023-01-10T08:50:53.521Z,9.75
2023-01-10T08:53:41.252Z,8.40
2023-01-10T08:56:28.949Z,7.72
2023-01-10T08:59:16.748Z,8.27
2023-01-10T09:02:05.290Z,7.40
2023-01-10T09:04:53.099Z,6.47
2023-01-10T09:07:41.653Z,6.22
2023-01-10T09:10:30.437Z,6.20
2023-01-10T09:13:18.128Z,6.38
2023-01-10T09:16:06.248Z,6.75
2023-01-10T09:18:54.749Z,6.18
2023-01-10T09:21:42.465Z,5.65
2023-01-10T09:24:30.349Z,5.05
2023-01-10T09:27:18.053Z,4.05
2023-01-10T09:30:06.393Z,4.20
2023-01-10T09:32:54.566Z,4.18
2023-01-10T09:35:42.428Z,3.88
2023-01-10T09:38:30.274Z,4.60
2023-01-10T09:41:26.227Z,4.55
2023-01-10T09:44:31.076Z,4.78
2023-01-10T09:47:27.463Z,4.68
2023-01-10T09:50:25.543Z,3.72
2023-01-10T09:53:19.017Z,4.00
2023-01-10T09:56:07.765Z,4.32
2023-01-10T09:58:56.477Z,4.15
2023-01-10T10:01:47.252Z,6.15
2023-01-10T10:04:40.030Z,5.53
2023-01-10T10:07:27.782Z,4.03
2023-01-10T10:10:35.111Z,4.05
2023-01-10T10:13:28.576Z,4.78
2023-01-10T10:16:35.047Z,5.70
2023-01-10T10:19:57.413Z,6.38
2023-01-10T10:23:13.999Z,4.30
2023-01-10T10:26:32.878Z,4.43
2023-01-10T10:29:42.324Z,4.75
2023-01-10T10:32:54.046Z,4.70
2023-01-10T10:35:49.423Z,3.90
2023-01-10T10:38:42.828Z,3.72
2023-01-10T10:41:38.789Z,3.13
2023-01-10T10:44:44.564Z,3.60
2023-01-10T10:47:36.469Z,3.90
2023-01-10T10:50:36.335Z,4.25
2023-01-10T10:53:24.093Z,3.80
2023-01-10T10:56:16.233Z,3.30
2023-01-10T10:59:04.963Z,4.80
2023-01-10T11:01:53.231Z,3.20
2023-01-10T11:04:41.027Z,4.68
2023-01-10T11:07:33.940Z,4.25
2023-01-10T11:10:35.122Z,5.25
2023-01-10T11:13:34.419Z,4.78
2023-01-10T11:16:45.669Z,4.75
2023-01-10T11:19:33.381Z,3.40
2023-01-10T11:22:21.318Z,4.75
2023-01-10T11:25:16.739Z,3.28
2023-01-10T11:28:06.382Z,2.78
2023-01-10T11:30:56.771Z,3.50
2023-01-10T11:33:44.555Z,3.38
2023-01-10T11:36:52.828Z,2.67
2023-01-10T11:39:40.542Z,2.50
2023-01-10T11:42:30.687Z,2.33
2023-01-10T11:45:18.259Z,2.50
2023-01-10T11:48:05.933Z,1.73
2023-01-10T11:50:56.197Z,1.58
2023-01-10T11:53:44.329Z,2.03
2023-01-10T11:56:35.350Z,3.25
2023-01-10T11:59:23.836Z,1.75
2023-01-10T12:02:14.186Z,0.95
2023-01-10T12:05:09.289Z,1.83
2023-01-10T12:08:10.803Z,2.40
2023-01-10T12:11:02.129Z,1.55
2023-01-10T12:13:51.759Z,1.63
2023-01-10T12:16:39.480Z,1.67
2023-01-10T12:19:28.618Z,1.25
2023-01-10T12:22:16.915Z,1.30
2023-01-10T12:25:17.441Z,1.50
2023-01-10T12:28:14.171Z,3.08
2023-01-10T12:31:04.348Z,2.55
2023-01-10T12:34:08.042Z,2.20
2023-01-10T12:37:14.933Z,2.67
2023-01-10T12:40:15.823Z,2.10
2023-01-10T12:43:33.882Z,2.55
2023-01-10T12:47:00.469Z,1.95
2023-01-10T12:50:14.467Z,3.20
2023-01-10T12:53:04.906Z,1.45
2023-01-10T12:55:56.251Z,1.25
2023-01-10T12:58:48.545Z,1.90
2023-01-10T13:01:42.137Z,1.70
2023-01-10T13:04:31.960Z,1.45
2023-01-10T13:07:21.950Z,1.75
2023-01-10T13:10:18.965Z,2.30
2023-01-10T13:16:40.610Z,5.45
2023-01-10T13:19:28.559Z,4.60
2023-01-10T13:22:22.366Z,3.55
2023-01-10T13:25:38.371Z,24.33
2023-01-10T13:28:32.540Z,5.78
2023-01-10T13:31:31.443Z,3.00
2023-01-10T13:34:20.356Z,2.55
2023-01-10T13:37:26.544Z,4.32
2023-01-10T13:40:28.500Z,2.17
2023-01-10T13:44:14.737Z,2.53
2023-01-10T13:47:02.447Z,2.08
2023-01-10T13:49:50.156Z,2.90
2023-01-10T13:52:37.832Z,3.38
2023-01-10T13:55:46.173Z,2.53
2023-01-10T13:59:01.616Z,3.03
2023-01-10T14:02:13.269Z,2.33
2023-01-10T14:05:07.163Z,2.88
2023-01-10T14:07:55.702Z,2.15
2023-01-10T14:10:43.326Z,2.90
2023-01-10T14:13:31.295Z,3.60
2023-01-10T14:16:43.717Z,2.03
2023-01-10T14:19:34.737Z,1.85
2023-01-10T14:22:31.231Z,2.47
2023-01-10T14:25:21.395Z,4.20
2023-01-10T14:28:25.937Z,2.30
2023-01-10T14:31:22.315Z,2.65
2023-01-10T14:34:22.250Z,3.85
2023-01-10T14:37:40.034Z,4.50
2023-01-10T14:40:41.459Z,2.25
2023-01-10T14:43:39.247Z,3.05
2023-01-10T14:46:39.456Z,1.55
2023-01-10T14:49:30.129Z,1.90
2023-01-10T14:52:20.385Z,2.83
2023-01-10T14:55:12.582Z,2.47
2023-01-10T15:00:51.016Z,2.97
2023-01-10T15:03:46.299Z,3.38
2023-01-10T15:06:55.247Z,6.68
2023-01-10T15:09:50.193Z,3.40
2023-01-10T15:12:38.822Z,1.92
2023-01-10T15:15:38.736Z,2.88
2023-01-10T15:18:37.800Z,3.10
2023-01-10T15:21:26.106Z,3.20
2023-01-10T15:24:32.879Z,2.53
2023-01-10T15:27:20.789Z,2.28
2023-01-10T15:30:09.805Z,1.77
2023-01-10T15:33:03.468Z,2.33
2023-01-10T15:35:51.292Z,2.22
2023-01-10T15:38:48.070Z,1.83
2023-01-10T15:41:36.109Z,1.83
2023-01-10T15:44:34.827Z,2.40
2023-01-10T15:47:45.417Z,2.67
2023-01-10T15:50:40.600Z,3.25
2023-01-10T15:53:50.247Z,2.10
2023-01-10T15:56:47.934Z,2.30
2023-01-10T15:59:47.463Z,1.35
2023-01-10T16:02:35.471Z,1.67
2023-01-10T16:05:23.416Z,1.83
2023-01-10T16:08:11.255Z,1.77
2023-01-10T16:11:03.105Z,1.20
2023-01-10T16:13:50.773Z,1.40
2023-01-10T16:16:39.030Z,1.77
2023-01-10T16:19:28.943Z,2.13
2023-01-10T16:22:19.559Z,1.98
2023-01-10T16:25:16.938Z,2.65
2023-01-10T16:28:07.350Z,2.17
2023-01-10T16:30:55.479Z,1.90
2023-01-10T16:33:43.423Z,1.85
2023-01-10T16:36:31.230Z,2.45
2023-01-10T16:39:24.052Z,2.15
2023-01-10T16:42:32.853Z,2.97
2023-01-10T16:45:20.640Z,1.92
2023-01-10T16:48:08.499Z,2.85
2023-01-10T16:51:32.967Z,2.58
2023-01-10T16:54:23.206Z,2.28
2023-01-10T16:57:12.500Z,1.08
2023-01-10T17:19:35.070Z,2.10
2023-01-10T17:22:23.514Z,0.80
2023-01-10T17:25:17.127Z,1.00
2023-01-10T17:28:05.908Z,1.48
2023-01-10T17:30:54.464Z,1.13
2023-01-10T17:33:44.161Z,0.80
2023-01-10T17:36:38.713Z,0.60
2023-01-10T17:39:26.978Z,1.67
2023-01-10T17:42:17.036Z,3.92
2023-01-10T17:45:06.553Z,1.45
2023-01-10T17:47:54.922Z,1.35
2023-01-10T17:50:51.203Z,1.13
2023-01-10T17:53:39.591Z,1.42
2023-01-10T17:56:30.060Z,1.80
2023-01-10T17:59:21.912Z,2.45
2023-01-10T18:02:18.990Z,1.27
2023-01-10T18:05:09.714Z,1.33
2023-01-10T18:08:01.565Z,2.70
2023-01-10T18:10:50.166Z,2.03
2023-01-10T18:13:38.061Z,1.80
2023-01-10T18:16:27.401Z,2.35
2023-01-10T18:19:15.551Z,2.08
2023-01-10T18:22:23.929Z,2.05
2023-01-10T18:25:12.111Z,1.17
2023-01-10T18:28:02.802Z,1.38
2023-01-10T18:30:53.304Z,1.70
2023-01-10T18:33:41.134Z,1.70
2023-01-10T18:36:28.853Z,1.08
2023-01-10T18:39:16.612Z,1.38
2023-01-10T18:42:04.553Z,0.60
2023-01-10T18:44:54.676Z,0.65
2023-01-10T18:47:43.809Z,0.77
2023-01-10T18:50:31.506Z,0.52
2023-01-10T18:53:19.497Z,0.43
2023-01-10T18:56:08.113Z,0.63
2023-01-10T18:58:59.009Z,0.30
2023-01-10T19:01:46.947Z,0.35
2023-01-10T19:04:34.790Z,3.72
2023-01-10T19:07:22.711Z,5.45
2023-01-10T19:10:11.031Z,4.78
2023-01-10T19:12:58.696Z,3.15
2023-01-10T19:15:48.335Z,1.38
2023-01-10T19:18:38.779Z,1.65
2023-01-10T19:21:27.771Z,1.20
2023-01-10T19:24:24.686Z,1.67
2023-01-10T19:27:12.697Z,1.08
2023-01-10T19:30:00.628Z,1.00
2023-01-10T19:32:48.646Z,0.47
2023-01-10T19:35:40.407Z,1.00
2023-01-10T19:38:30.510Z,1.08
2023-01-10T19:41:22.973Z,0.40
2023-01-10T19:44:16.340Z,0.10
2023-01-10T19:47:04.249Z,0.35
2023-01-10T19:49:52.328Z,0.10
2023-01-10T19:52:43.799Z,0.20
2023-01-10T19:55:32.847Z,0.10
2023-01-10T19:58:20.803Z,0.10
2023-01-10T20:01:16.931Z,0.30
2023-01-10T20:04:06.791Z,0.47
2023-01-10T20:06:54.736Z,0.40
2023-01-10T20:09:42.480Z,0.10
2023-01-10T20:12:30.488Z,0.20
2023-01-10T20:15:20.191Z,0.30
2023-01-10T20:18:07.989Z,0.20
2023-01-10T20:20:56.284Z,0.25
2023-01-10T20:23:45.098Z,0.10
2023-01-10T20:26:37.916Z,0.20
2023-01-10T20:29:25.703Z,0.00
2023-01-10T20:32:15.118Z,0.47
2023-01-10T20:35:02.899Z,0.10
2023-01-10T20:37:50.504Z,0.10
2023-01-10T20:40:41.972Z,0.20
2023-01-10T20:43:29.849Z,0.10
2023-01-10T20:46:21.299Z,0.00
2023-01-10T20:49:10.658Z,0.10
2023-01-10T20:51:58.454Z,0.70
2023-01-10T20:54:46.132Z,0.30
2023-01-10T20:57:33.829Z,0.73
2023-01-10T21:00:21.642Z,0.20
2023-01-10T21:03:09.589Z,0.40
2023-01-10T21:05:58.869Z,1.15
2023-01-10T21:08:48.146Z,0.95
2023-01-10T21:11:51.536Z,1.60
2023-01-10T21:14:45.030Z,1.55
2023-01-10T21:17:32.634Z,1.55
2023-01-10T21:20:20.409Z,1.80
2023-01-10T21:23:08.155Z,2.72
2023-01-10T21:26:05.863Z,3.53
2023-01-10T21:28:53.515Z,21.98
2023-01-10T21:31:41.305Z,13.38
2023-01-10T21:34:28.969Z,13.90
2023-01-10T21:37:16.796Z,12.98
2023-01-10T21:40:05.299Z,11.05
2023-01-10T21:42:53.327Z,13.38
2023-01-10T21:45:40.991Z,9.13
2023-01-10T21:48:29.003Z,10.48
2023-01-10T21:51:16.655Z,13.00
2023-01-10T21:54:04.581Z,11.93
2023-01-10T21:56:52.243Z,10.90
2023-01-10T21:59:41.863Z,8.65
2023-01-10T22:02:32.268Z,12.90
2023-01-10T22:05:20.792Z,9.20
2023-01-10T22:08:08.434Z,12.27
2023-01-10T22:10:56.139Z,9.18
2023-01-10T22:13:43.833Z,7.90
2023-01-10T22:16:31.607Z,7.22
2023-01-10T22:19:19.605Z,6.45
2023-01-10T22:22:10.607Z,8.15
2023-01-10T22:24:58.220Z,11.90
2023-01-10T22:27:46.092Z,8.82
2023-01-10T22:30:33.789Z,9.63
2023-01-10T22:33:21.885Z,8.55
2023-01-10T22:36:17.929Z,8.65
2023-01-10T22:39:09.277Z,7.72
2023-01-10T22:41:57.080Z,10.33
2023-01-10T22:44:44.715Z,14.65
2023-01-10T22:47:32.846Z,9.98
2023-01-10T22:50:50.539Z,10.60
2023-01-10T22:53:40.453Z,13.77
2023-01-10T22:56:31.493Z,11.48
2023-01-10T22:59:19.169Z,9.30
2023-01-10T23:02:06.936Z,5.75
2023-01-10T23:04:54.643Z,5.25
2023-01-10T23:07:42.386Z,5.38
2023-01-10T23:10:31.100Z,3.88
2023-01-10T23:13:18.893Z,3.78
2023-01-10T23:16:12.335Z,5.03
2023-01-10T23:19:01.269Z,7.10
2023-01-10T23:21:49.051Z,10.82
2023-01-10T23:24:36.869Z,7.50
2023-01-10T23:27:24.423Z,6.75
2023-01-10T23:30:12.507Z,5.35
2023-01-10T23:33:00.146Z,6.97
2023-01-10T23:35:48.029Z,7.30
2023-01-10T23:38:35.783Z,5.68
2023-01-10T23:41:24.075Z,6.47
2023-01-10T23:44:11.766Z,4.35
2023-01-10T23:46:59.600Z,2.78
2023-01-10T23:49:47.223Z,3.47
2023-01-10T23:52:34.887Z,4.40
2023-01-10T23:55:22.482Z,2.40
2023-01-10T23:58:10.275Z,1.70
